Time,TemperatureF,DewpointF,PressureIn,WindDirection,WindDirectionDegrees,WindSpeedMPH,WindSpeedGustMPH,Humidity,HourlyPrecipIn,Conditions,Clouds,dailyrainin,SolarRadiationWatts/m^2,SoftwareType,DateUTC
2013-02-17 00:01:00,20.0,16.0,-100.00,NNE,26,0.0,2.0,85,-99.99,,,0.00,0.000000,,2013-02-17 07:01:00,
2013-02-17 00:42:00,19.0,15.0,-100.00,NE,55,2.0,2.0,83,-99.99,,,0.00,0.000000,,2013-02-17 07:42:00,
2013-02-17 00:52:00,19.0,15.0,-100.00,NE,55,2.0,2.0,83,-99.99,,,0.00,0.000000,,2013-02-17 07:52:00,
2013-02-17 01:01:00,19.0,15.0,-100.00,NE,55,2.0,2.0,83,-99.99,,,0.00,0.000000,,2013-02-17 08:01:00,
2013-02-17 01:42:00,18.0,12.0,-100.00,SSE,163,1.0,3.0,77,-99.99,,,0.00,0.000000,,2013-02-17 08:42:00,
2013-02-17 01:52:00,18.0,12.0,-100.00,SSE,163,1.0,3.0,77,-99.99,,,0.00,0.000000,,2013-02-17 08:52:00,
2013-02-17 02:01:00,18.0,12.0,-100.00,SSE,163,1.0,3.0,77,-99.99,,,0.00,0.000000,,2013-02-17 09:01:00,
2013-02-17 02:42:00,17.0,11.0,-100.00,SSE,165,0.0,2.0,78,-99.99,,,0.00,0.000000,,2013-02-17 09:42:00,
2013-02-17 02:52:00,17.0,11.0,-100.00,SSE,165,0.0,2.0,78,-99.99,,,0.00,0.000000,,2013-02-17 09:52:00,
2013-02-17 03:01:00,17.0,11.0,-100.00,SSE,165,0.0,2.0,78,-99.99,,,0.00,0.000000,,2013-02-17 10:01:00,
2013-02-17 03:42:00,17.0,12.0,-100.00,SSW,195,0.0,2.0,80,-99.99,,,0.00,0.000000,,2013-02-17 10:42:00,
2013-02-17 03:52:00,17.0,12.0,-100.00,SSW,195,0.0,2.0,80,-99.99,,,0.00,0.000000,,2013-02-17 10:52:00,
2013-02-17 04:01:00,17.0,12.0,-100.00,SSW,195,0.0,2.0,80,-99.99,,,0.00,0.000000,,2013-02-17 11:01:00,
2013-02-17 04:11:00,17.0,12.0,-100.00,SSW,195,0.0,2.0,80,-99.99,,,0.00,0.000000,,2013-02-17 11:11:00,
2013-02-17 04:42:00,17.0,12.0,-100.00,SSW,211,1.0,2.0,81,-99.99,,,0.00,0.000000,,2013-02-17 11:42:00,
2013-02-17 04:52:00,17.0,12.0,-100.00,SSW,211,1.0,2.0,81,-99.99,,,0.00,0.000000,,2013-02-17 11:52:00,
2013-02-17 05:02:00,17.0,12.0,-100.00,SSW,211,1.0,2.0,81,-99.99,,,0.00,0.000000,,2013-02-17 12:02:00,
2013-02-17 05:11:00,17.0,12.0,-100.00,SSW,211,1.0,2.0,81,-99.99,,,0.00,0.000000,,2013-02-17 12:11:00,
2013-02-17 05:42:00,16.0,12.0,-100.00,NNW,337,1.0,3.0,83,-99.99,,,0.00,0.000000,,2013-02-17 12:42:00,
2013-02-17 05:52:00,16.0,12.0,-100.00,NNW,337,1.0,3.0,83,-99.99,,,0.00,0.000000,,2013-02-17 12:52:00,
2013-02-17 06:02:00,16.0,12.0,-100.00,NNW,337,1.0,3.0,83,-99.99,,,0.00,0.000000,,2013-02-17 13:02:00,
2013-02-17 06:42:00,15.0,10.0,-100.00,NE,35,1.0,2.0,80,0.00,,,-99.99,0.000000,,2013-02-17 13:42:00,
2013-02-17 06:52:00,15.0,10.0,-100.00,NE,35,1.0,2.0,80,0.00,,,-99.99,0.000000,,2013-02-17 13:52:00,
2013-02-17 07:01:00,15.0,10.0,-100.00,NE,35,1.0,2.0,80,0.00,,,-99.99,0.000000,,2013-02-17 14:01:00,
2013-02-17 07:42:00,14.0,9.0,-100.00,ESE,119,2.0,5.0,81,-99.99,,,0.00,1.000000,,2013-02-17 14:42:00,
2013-02-17 07:53:00,14.0,9.0,-100.00,ESE,119,2.0,5.0,81,-99.99,,,0.00,1.000000,,2013-02-17 14:53:00,
2013-02-17 08:01:00,14.0,9.0,-100.00,ESE,119,2.0,5.0,81,-99.99,,,0.00,1.000000,,2013-02-17 15:01:00,
2013-02-17 08:42:00,26.0,18.0,-100.00,South,190,0.0,3.0,72,-99.99,,,0.00,83.000000,,2013-02-17 15:42:00,
2013-02-17 08:52:00,26.0,18.0,-100.00,South,190,0.0,3.0,72,-99.99,,,0.00,83.000000,,2013-02-17 15:52:00,
2013-02-17 09:01:00,26.0,18.0,-100.00,South,190,0.0,3.0,72,-99.99,,,0.00,83.000000,,2013-02-17 16:01:00,
2013-02-17 09:11:00,26.0,18.0,-100.00,South,190,0.0,3.0,72,-99.99,,,0.00,83.000000,,2013-02-17 16:11:00,
2013-02-17 09:42:00,39.0,24.0,-100.00,NE,37,1.0,3.0,54,0.00,,,0.00,311.000000,,2013-02-17 16:42:00,
2013-02-17 09:52:00,39.0,24.0,-100.00,NE,37,1.0,3.0,54,0.00,,,0.00,311.000000,,2013-02-17 16:52:00,
2013-02-17 10:02:00,39.0,24.0,-100.00,NE,37,1.0,3.0,54,0.00,,,0.00,311.000000,,2013-02-17 17:02:00,
2013-02-17 10:42:00,46.0,9.0,-100.00,SSW,210,9.0,14.0,22,0.00,,,0.00,505.000000,,2013-02-17 17:42:00,
2013-02-17 10:52:00,46.0,9.0,-100.00,SSW,210,9.0,14.0,22,0.00,,,0.00,505.000000,,2013-02-17 17:52:00,
2013-02-17 11:01:00,46.0,9.0,-100.00,SSW,210,9.0,14.0,22,0.00,,,0.00,505.000000,,2013-02-17 18:01:00,
2013-02-17 11:11:00,46.0,9.0,-100.00,SSW,210,9.0,14.0,22,0.00,,,0.00,505.000000,,2013-02-17 18:11:00,
2013-02-17 11:42:00,47.0,11.0,-100.00,SSW,212,12.0,18.0,23,0.00,,,0.00,655.000000,,2013-02-17 18:42:00,
2013-02-17 11:52:00,47.0,11.0,-100.00,SSW,212,12.0,18.0,23,0.00,,,0.00,655.000000,,2013-02-17 18:52:00,
2013-02-17 12:01:00,47.0,11.0,-100.00,SSW,212,12.0,18.0,23,0.00,,,0.00,655.000000,,2013-02-17 19:01:00,
2013-02-17 12:11:00,47.0,11.0,-100.00,SSW,212,12.0,18.0,23,0.00,,,0.00,655.000000,,2013-02-17 19:11:00,
2013-02-17 12:42:00,47.0,11.0,-100.00,SW,222,14.0,23.0,23,0.00,,,0.00,746.000000,,2013-02-17 19:42:00,
2013-02-17 12:52:00,47.0,11.0,-100.00,SW,222,14.0,23.0,23,0.00,,,0.00,746.000000,,2013-02-17 19:52:00,
2013-02-17 13:01:00,47.0,11.0,-100.00,SW,222,14.0,23.0,23,0.00,,,0.00,746.000000,,2013-02-17 20:01:00,
2013-02-17 13:11:00,47.0,11.0,-100.00,SW,222,14.0,23.0,23,0.00,,,0.00,746.000000,,2013-02-17 20:11:00,
2013-02-17 13:42:00,48.0,11.0,-100.00,SW,222,13.0,25.0,22,0.00,,,0.00,771.000000,,2013-02-17 20:42:00,
2013-02-17 13:52:00,48.0,11.0,-100.00,SW,222,13.0,25.0,22,0.00,,,0.00,771.000000,,2013-02-17 20:52:00,
2013-02-17 14:01:00,48.0,11.0,-100.00,SW,222,13.0,25.0,22,0.00,,,0.00,771.000000,,2013-02-17 21:01:00,
2013-02-17 14:11:00,48.0,11.0,-100.00,SW,222,13.0,25.0,22,0.00,,,0.00,771.000000,,2013-02-17 21:11:00,
2013-02-17 14:42:00,49.0,12.0,-100.00,SW,234,12.0,23.0,22,0.00,,,0.00,725.000000,,2013-02-17 21:42:00,
2013-02-17 14:53:00,49.0,12.0,-100.00,SW,234,12.0,23.0,22,0.00,,,0.00,725.000000,,2013-02-17 21:53:00,
2013-02-17 15:01:00,49.0,12.0,-100.00,SW,234,12.0,23.0,22,0.00,,,0.00,725.000000,,2013-02-17 22:01:00,
2013-02-17 15:11:00,49.0,12.0,-100.00,SW,234,12.0,23.0,22,0.00,,,0.00,725.000000,,2013-02-17 22:11:00,
2013-02-17 15:42:00,49.0,12.0,-100.00,SW,226,14.0,24.0,22,0.00,,,0.00,620.000000,,2013-02-17 22:42:00,
2013-02-17 15:52:00,49.0,12.0,-100.00,SW,226,14.0,24.0,22,0.00,,,0.00,620.000000,,2013-02-17 22:52:00,
2013-02-17 16:01:00,49.0,12.0,-100.00,SW,226,14.0,24.0,22,0.00,,,0.00,620.000000,,2013-02-17 23:01:00,
2013-02-17 16:11:00,49.0,12.0,-100.00,SW,226,14.0,24.0,22,0.00,,,0.00,620.000000,,2013-02-17 23:11:00,
2013-02-17 16:42:00,50.0,9.0,-100.00,WSW,253,10.0,22.0,19,0.00,,,0.00,461.000000,,2013-02-17 23:42:00,
2013-02-17 16:52:00,50.0,9.0,-100.00,WSW,253,10.0,22.0,19,0.00,,,0.00,461.000000,,2013-02-17 23:52:00,
2013-02-17 17:01:00,50.0,9.0,-100.00,WSW,253,10.0,22.0,19,0.00,,,0.00,461.000000,,2013-02-18 00:01:00,
2013-02-17 17:11:00,50.0,9.0,-100.00,WSW,253,10.0,22.0,19,0.00,,,0.00,461.000000,,2013-02-18 00:11:00,
2013-02-17 17:42:00,47.0,7.0,-100.00,West,265,12.0,23.0,19,0.00,,,0.00,266.000000,,2013-02-18 00:42:00,
2013-02-17 17:52:00,47.0,7.0,-100.00,West,265,12.0,23.0,19,0.00,,,0.00,266.000000,,2013-02-18 00:52:00,
2013-02-17 18:01:00,47.0,7.0,-100.00,West,265,12.0,23.0,19,0.00,,,0.00,266.000000,,2013-02-18 01:01:00,
2013-02-17 18:11:00,47.0,7.0,-100.00,West,265,12.0,23.0,19,0.00,,,0.00,266.000000,,2013-02-18 01:11:00,
2013-02-17 18:42:00,42.0,10.0,-100.00,West,260,8.0,21.0,26,0.00,,,0.00,63.000000,,2013-02-18 01:42:00,
2013-02-17 18:52:00,42.0,10.0,-100.00,West,260,8.0,21.0,26,0.00,,,0.00,63.000000,,2013-02-18 01:52:00,
2013-02-17 19:01:00,42.0,10.0,-100.00,West,260,8.0,21.0,26,0.00,,,0.00,63.000000,,2013-02-18 02:01:00,
2013-02-17 19:11:00,42.0,10.0,-100.00,West,260,8.0,21.0,26,0.00,,,0.00,63.000000,,2013-02-18 02:11:00,
2013-02-17 19:42:00,38.0,7.0,-100.00,West,265,6.0,12.0,27,0.00,,,0.00,0.000000,,2013-02-18 02:42:00,
2013-02-17 19:52:00,38.0,7.0,-100.00,West,265,6.0,12.0,27,0.00,,,0.00,0.000000,,2013-02-18 02:52:00,
2013-02-17 20:01:00,38.0,7.0,-100.00,West,265,6.0,12.0,27,0.00,,,0.00,0.000000,,2013-02-18 03:01:00,
2013-02-17 20:11:00,38.0,7.0,-100.00,West,265,6.0,12.0,27,0.00,,,0.00,0.000000,,2013-02-18 03:11:00,
2013-02-17 20:42:00,37.0,7.0,-100.00,WSW,253,7.0,11.0,28,0.00,,,0.00,0.000000,,2013-02-18 03:42:00,
2013-02-17 20:52:00,37.0,7.0,-100.00,WSW,253,7.0,11.0,28,0.00,,,0.00,0.000000,,2013-02-18 03:52:00,
2013-02-17 21:01:00,37.0,7.0,-100.00,WSW,253,7.0,11.0,28,0.00,,,0.00,0.000000,,2013-02-18 04:01:00,
2013-02-17 21:11:00,37.0,7.0,-100.00,WSW,253,7.0,11.0,28,0.00,,,0.00,0.000000,,2013-02-18 04:11:00,
2013-02-17 21:42:00,37.0,7.0,-100.00,West,266,10.0,17.0,28,0.00,,,0.00,0.000000,,2013-02-18 04:42:00,
2013-02-17 21:52:00,37.0,7.0,-100.00,West,266,10.0,17.0,28,0.00,,,0.00,0.000000,,2013-02-18 04:52:00,
2013-02-17 22:01:00,37.0,7.0,-100.00,West,266,10.0,17.0,28,0.00,,,0.00,0.000000,,2013-02-18 05:01:00,
2013-02-17 22:11:00,37.0,7.0,-100.00,West,266,10.0,17.0,28,0.00,,,0.00,0.000000,,2013-02-18 05:11:00,
2013-02-17 22:42:00,35.0,7.0,-100.00,West,272,7.0,16.0,31,0.00,,,0.00,0.000000,,2013-02-18 05:42:00,
2013-02-17 22:52:00,35.0,7.0,-100.00,West,272,7.0,16.0,31,0.00,,,0.00,0.000000,,2013-02-18 05:52:00,
2013-02-17 23:02:00,35.0,7.0,-100.00,West,272,7.0,16.0,31,0.00,,,0.00,0.000000,,2013-02-18 06:02:00,
2013-02-17 23:11:00,35.0,7.0,-100.00,West,272,7.0,16.0,31,0.00,,,0.00,0.000000,,2013-02-18 06:11:00,
2013-02-17 23:42:00,28.0,13.0,-100.00,WSW,251,3.0,11.0,52,0.00,,,0.00,0.000000,,2013-02-18 06:42:00,
2013-02-17 23:52:00,28.0,13.0,-100.00,WSW,251,3.0,11.0,52,0.00,,,0.00,0.000000,,2013-02-18 06:52:00,